createdAt,value
2018-08-24T00:00:22.066Z,21.98
2018-08-24T00:01:22.071Z,22.07
2018-08-24T00:02:22.079Z,22.06
2018-08-24T00:03:22.071Z,21.95
2018-08-24T00:04:22.076Z,21.99
2018-08-24T00:05:22.074Z,21.92
2018-08-24T00:06:22.078Z,21.79
2018-08-24T00:07:22.149Z,21.79
2018-08-24T00:08:22.084Z,21.67
2018-08-24T00:09:22.090Z,21.66
2018-08-24T00:10:22.093Z,21.72
2018-08-24T00:11:22.098Z,21.66
2018-08-24T00:12:22.100Z,21.64
2018-08-24T00:13:22.097Z,21.64
2018-08-24T00:14:22.100Z,21.64
2018-08-24T00:15:22.117Z,21.67
2018-08-24T00:16:22.112Z,21.61
2018-08-24T00:17:22.112Z,21.54
2018-08-24T00:18:22.113Z,21.64
2018-08-24T00:19:22.116Z,21.54
2018-08-24T00:20:22.124Z,21.58
2018-08-24T00:21:22.126Z,21.54
2018-08-24T00:22:22.124Z,21.45
2018-08-24T00:23:22.131Z,21.45
2018-08-24T00:24:22.146Z,21.46
2018-08-24T00:25:22.136Z,21.37
2018-08-24T00:26:22.139Z,21.32
2018-08-24T00:27:22.143Z,21.36
2018-08-24T00:28:22.146Z,21.35
2018-08-24T00:29:22.149Z,21.27
2018-08-24T00:30:22.149Z,21.20
2018-08-24T00:31:22.156Z,21.25
2018-08-24T00:32:22.176Z,21.17
2018-08-24T00:33:22.158Z,21.12
2018-08-24T00:34:22.161Z,21.20
2018-08-24T00:35:22.160Z,21.17
2018-08-24T00:36:22.166Z,21.18
2018-08-24T00:37:22.176Z,21.14
2018-08-24T00:38:22.173Z,21.27
2018-08-24T00:39:22.178Z,21.24
2018-08-24T00:40:22.180Z,21.18
2018-08-24T00:41:22.187Z,21.24
2018-08-24T00:42:22.187Z,21.21
2018-08-24T00:43:22.185Z,21.30
2018-08-24T00:44:22.186Z,21.27
2018-08-24T00:45:22.191Z,21.24
2018-08-24T00:46:22.195Z,21.27
2018-08-24T00:47:22.199Z,21.25
2018-08-24T00:48:22.203Z,21.25
2018-08-24T00:49:22.203Z,21.25
2018-08-24T00:50:22.213Z,21.32
2018-08-24T00:51:22.210Z,21.12
2018-08-24T00:52:22.210Z,21.11
2018-08-24T00:53:22.209Z,21.17
2018-08-24T00:54:22.215Z,21.17
2018-08-24T00:55:22.218Z,21.00
2018-08-24T00:56:22.222Z,21.07
2018-08-24T00:57:22.226Z,20.97
2018-08-24T00:58:22.227Z,21.05
2018-08-24T00:59:22.229Z,21.03
2018-08-24T01:00:22.255Z,21.05
2018-08-24T01:01:22.239Z,21.02
2018-08-24T01:02:22.244Z,20.95
2018-08-24T01:03:22.238Z,20.93
2018-08-24T01:04:22.242Z,20.93
2018-08-24T01:05:22.246Z,20.87
2018-08-24T01:06:22.245Z,20.99
2018-08-24T01:07:22.275Z,20.96
2018-08-24T01:08:22.258Z,20.82
2018-08-24T01:09:22.257Z,20.75
2018-08-24T01:10:22.259Z,20.63
2018-08-24T01:11:22.260Z,20.50
2018-08-24T01:12:22.266Z,20.55
2018-08-24T01:13:22.262Z,20.40
2018-08-24T01:14:22.270Z,20.40
2018-08-24T01:15:22.269Z,20.55
2018-08-24T01:16:22.273Z,20.43
2018-08-24T01:17:22.277Z,20.48
2018-08-24T01:18:22.282Z,20.51
2018-08-24T01:19:22.277Z,20.47
2018-08-24T01:20:22.283Z,20.43
2018-08-24T01:21:22.285Z,20.55
2018-08-24T01:22:22.287Z,20.60
2018-08-24T01:23:22.290Z,20.48
2018-08-24T01:24:22.289Z,20.44
2018-08-24T01:25:22.292Z,20.37
2018-08-24T01:26:22.298Z,20.34
2018-08-24T01:27:22.301Z,20.26
2018-08-24T01:28:22.303Z,20.25
2018-08-24T01:29:22.310Z,20.31
2018-08-24T01:30:22.302Z,20.24
2018-08-24T01:31:22.318Z,20.26
2018-08-24T01:32:22.312Z,20.22
2018-08-24T01:33:22.316Z,20.16
2018-08-24T01:34:22.316Z,20.13
2018-08-24T01:35:22.318Z,20.14
2018-08-24T01:36:22.322Z,20.09
2018-08-24T01:37:22.322Z,20.03
2018-08-24T01:38:22.319Z,20.03
2018-08-24T01:39:22.330Z,20.02
2018-08-24T01:40:22.328Z,20.03
2018-08-24T01:41:22.337Z,19.94
2018-08-24T01:42:22.334Z,19.94
2018-08-24T01:43:22.337Z,19.92
2018-08-24T01:44:22.339Z,19.94
2018-08-24T01:45:22.345Z,19.89
2018-08-24T01:46:22.340Z,19.82
2018-08-24T01:47:22.346Z,19.88
2018-08-24T01:48:22.350Z,19.77
2018-08-24T01:49:22.348Z,19.77
2018-08-24T01:50:22.349Z,19.76
2018-08-24T01:51:22.348Z,19.74
2018-08-24T01:52:22.353Z,19.77
2018-08-24T01:53:22.357Z,19.84
2018-08-24T01:54:22.362Z,19.82
2018-08-24T01:55:22.358Z,19.91
2018-08-24T01:56:22.358Z,19.82
2018-08-24T01:57:22.359Z,19.92
2018-08-24T01:58:22.364Z,19.86
2018-08-24T01:59:22.368Z,19.85
2018-08-24T02:00:22.368Z,19.88
2018-08-24T02:01:22.374Z,19.85
2018-08-24T02:02:22.371Z,19.86
2018-08-24T02:03:22.375Z,19.91
2018-08-24T02:04:22.374Z,19.89
2018-08-24T02:05:22.380Z,19.85
2018-08-24T02:06:22.386Z,19.84
2018-08-24T02:07:22.381Z,19.92
2018-08-24T02:08:22.392Z,19.91
2018-08-24T02:09:22.391Z,19.89
2018-08-24T02:10:22.392Z,19.94
2018-08-24T02:11:22.393Z,19.94
2018-08-24T02:12:22.433Z,19.92
2018-08-24T02:13:22.394Z,19.96
2018-08-24T02:14:22.404Z,19.89
2018-08-24T02:15:22.403Z,19.95
2018-08-24T02:16:22.412Z,19.96
2018-08-24T02:17:22.407Z,19.86
2018-08-24T02:18:22.403Z,19.81
2018-08-24T02:19:22.408Z,19.89
2018-08-24T02:20:22.412Z,19.91
2018-08-24T02:21:22.410Z,19.88
2018-08-24T02:22:22.408Z,19.84
2018-08-24T02:23:22.412Z,19.86
2018-08-24T02:24:22.416Z,19.69
2018-08-24T02:25:22.418Z,19.71
2018-08-24T02:26:22.425Z,19.70
2018-08-24T02:27:22.423Z,19.67
2018-08-24T02:28:22.424Z,19.74
2018-08-24T02:29:22.420Z,19.71
2018-08-24T02:30:22.433Z,19.70
2018-08-24T02:31:22.530Z,19.52
2018-08-24T02:32:22.429Z,19.54
2018-08-24T02:33:22.435Z,19.56
2018-08-24T02:34:22.432Z,19.51
2018-08-24T02:35:22.433Z,19.52
2018-08-24T02:36:22.443Z,19.44
2018-08-24T02:37:22.452Z,19.52
2018-08-24T02:38:22.442Z,19.47
2018-08-24T02:39:22.443Z,19.45
2018-08-24T02:40:22.449Z,19.47
2018-08-24T02:41:22.450Z,19.48
2018-08-24T02:42:22.451Z,19.49
2018-08-24T02:43:22.454Z,19.49
2018-08-24T02:44:22.460Z,19.40
2018-08-24T02:45:22.452Z,19.40
2018-08-24T02:46:22.455Z,19.39
2018-08-24T02:47:22.465Z,19.45
2018-08-24T02:48:22.459Z,19.44
2018-08-24T02:49:22.459Z,19.45
2018-08-24T02:50:22.458Z,19.48
2018-08-24T02:51:22.464Z,19.48
2018-08-24T02:52:22.467Z,19.41
2018-08-24T02:53:22.472Z,19.52
2018-08-24T02:54:22.465Z,19.48
2018-08-24T02:55:22.468Z,19.47
2018-08-24T02:56:22.481Z,19.51
2018-08-24T02:57:22.481Z,19.67
2018-08-24T02:58:22.474Z,19.64
2018-08-24T02:59:22.478Z,19.66
2018-08-24T03:00:22.478Z,19.74
2018-08-24T03:01:22.474Z,19.69
2018-08-24T03:02:22.483Z,19.76
2018-08-24T03:03:22.487Z,19.71
2018-08-24T03:04:22.488Z,19.69
2018-08-24T03:05:22.660Z,19.69
2018-08-24T03:06:22.489Z,19.88
2018-08-24T03:07:22.492Z,19.82
2018-08-24T03:08:22.532Z,19.85
2018-08-24T03:09:22.492Z,19.84
2018-08-24T03:10:22.498Z,19.86
2018-08-24T03:11:22.497Z,19.91
2018-08-24T03:12:22.494Z,19.96
2018-08-24T03:13:22.497Z,19.85
2018-08-24T03:14:22.501Z,19.92
2018-08-24T03:15:22.509Z,19.89
2018-08-24T03:16:22.514Z,19.95
2018-08-24T03:17:22.510Z,19.96
2018-08-24T03:18:22.524Z,20.06
2018-08-24T03:19:22.509Z,19.99
2018-08-24T03:20:22.512Z,20.04
2018-08-24T03:21:22.533Z,20.00
2018-08-24T03:22:22.516Z,20.07
2018-08-24T03:23:22.521Z,20.07
2018-08-24T03:24:22.514Z,20.11
2018-08-24T03:25:22.518Z,20.11
2018-08-24T03:26:22.529Z,20.07
2018-08-24T03:27:22.525Z,20.14
2018-08-24T03:28:22.535Z,20.13
2018-08-24T03:29:22.528Z,20.14
2018-08-24T03:30:22.528Z,20.13
2018-08-24T03:31:22.530Z,20.14
2018-08-24T03:32:22.541Z,20.13
2018-08-24T03:33:22.534Z,20.22
2018-08-24T03:34:22.540Z,20.14
2018-08-24T03:35:22.539Z,20.19
2018-08-24T03:36:22.535Z,20.22
2018-08-24T03:37:22.568Z,20.18
2018-08-24T03:38:22.543Z,20.31
2018-08-24T03:39:22.543Z,20.28
2018-08-24T03:40:22.549Z,20.25
2018-08-24T03:41:22.550Z,20.22
2018-08-24T03:42:22.559Z,20.26
2018-08-24T03:43:22.555Z,20.21
2018-08-24T03:44:22.556Z,20.21
2018-08-24T03:45:22.556Z,20.41
2018-08-24T03:46:22.556Z,20.36
2018-08-24T03:47:22.565Z,20.34
2018-08-24T03:48:22.565Z,20.34
2018-08-24T03:49:22.564Z,20.41
2018-08-24T03:50:22.571Z,20.28
2018-08-24T03:51:22.565Z,20.32
2018-08-24T03:52:22.565Z,20.40
2018-08-24T03:53:22.663Z,20.36
2018-08-24T03:54:22.574Z,20.28
2018-08-24T03:55:22.574Z,20.26
2018-08-24T03:56:22.577Z,20.29
2018-08-24T03:57:22.576Z,20.22
2018-08-24T03:58:22.585Z,20.24
2018-08-24T03:59:22.583Z,20.22
2018-08-24T04:00:22.583Z,20.24
2018-08-24T04:01:22.588Z,20.26
2018-08-24T04:02:22.593Z,20.26
2018-08-24T04:03:22.589Z,20.26
2018-08-24T04:04:22.589Z,20.26
2018-08-24T04:05:22.590Z,20.26
2018-08-24T04:06:22.597Z,20.24
2018-08-24T04:07:22.598Z,20.26
2018-08-24T04:08:22.598Z,20.28
2018-08-24T04:09:22.602Z,20.24
2018-08-24T04:10:22.599Z,20.24
2018-08-24T04:11:22.599Z,20.28
2018-08-24T04:12:22.604Z,20.37
2018-08-24T04:13:22.606Z,20.37
2018-08-24T04:14:22.608Z,20.34
2018-08-24T04:15:22.611Z,20.44
2018-08-24T04:16:22.613Z,20.36
2018-08-24T04:17:22.615Z,20.55
2018-08-24T04:18:22.615Z,20.52
2018-08-24T04:19:22.654Z,20.65
2018-08-24T04:20:22.634Z,20.75
2018-08-24T04:21:22.621Z,20.81
2018-08-24T04:22:22.621Z,20.74
2018-08-24T04:23:22.622Z,20.77
2018-08-24T04:24:22.630Z,20.81
2018-08-24T04:25:22.633Z,20.85
2018-08-24T04:26:22.630Z,20.90
2018-08-24T04:27:22.640Z,20.97
2018-08-24T04:28:22.630Z,21.00
2018-08-24T04:29:22.641Z,20.99
2018-08-24T04:30:22.640Z,20.96
2018-08-24T04:31:22.650Z,21.09
2018-08-24T04:32:22.643Z,21.02
2018-08-24T04:33:22.640Z,20.99
2018-08-24T04:34:22.638Z,21.06
2018-08-24T04:35:22.647Z,20.99
2018-08-24T04:36:22.650Z,20.99
2018-08-24T04:37:22.650Z,20.97
2018-08-24T04:38:22.647Z,21.02
2018-08-24T04:39:22.651Z,21.00
2018-08-24T04:40:22.791Z,20.97
2018-08-24T04:41:22.659Z,20.96
2018-08-24T04:42:22.667Z,20.93
2018-08-24T04:43:22.661Z,20.96
2018-08-24T04:44:22.664Z,20.85
2018-08-24T04:45:22.665Z,20.88
2018-08-24T04:46:22.666Z,20.87
2018-08-24T04:47:22.668Z,20.74
2018-08-24T04:48:22.677Z,20.78
2018-08-24T04:49:22.679Z,20.74
2018-08-24T04:50:22.673Z,20.78
2018-08-24T04:51:22.684Z,20.78
2018-08-24T04:52:22.688Z,20.70
2018-08-24T04:53:22.681Z,20.67
2018-08-24T04:54:22.683Z,20.67
2018-08-24T04:55:22.678Z,20.65
2018-08-24T04:56:22.682Z,20.67
2018-08-24T04:57:22.686Z,20.70
2018-08-24T04:58:22.713Z,20.70
2018-08-24T04:59:22.691Z,20.70
2018-08-24T05:00:22.688Z,20.65
2018-08-24T05:01:22.716Z,20.67
2018-08-24T05:02:22.697Z,20.60
2018-08-24T05:03:22.696Z,20.62
2018-08-24T05:04:22.696Z,20.75
2018-08-24T05:05:22.698Z,20.77
2018-08-24T05:06:22.697Z,20.75
2018-08-24T05:07:22.698Z,20.80
2018-08-24T05:08:22.702Z,20.92
2018-08-24T05:09:22.701Z,20.84
2018-08-24T05:10:22.709Z,20.92
2018-08-24T05:11:22.712Z,20.88
2018-08-24T05:12:22.712Z,21.00
2018-08-24T05:13:22.708Z,20.97
2018-08-24T05:14:22.709Z,20.97
2018-08-24T05:15:22.714Z,20.97
2018-08-24T05:16:22.715Z,21.02
2018-08-24T05:17:22.719Z,20.96
2018-08-24T05:18:22.719Z,20.92
2018-08-24T05:19:22.721Z,20.92
2018-08-24T05:20:22.722Z,20.96
2018-08-24T05:21:22.781Z,21.09
2018-08-24T05:22:22.726Z,21.14
2018-08-24T05:23:22.760Z,21.21
2018-08-24T05:24:22.726Z,21.14
2018-08-24T05:25:22.730Z,21.18
2018-08-24T05:26:22.734Z,21.15
2018-08-24T05:27:22.737Z,21.20
2018-08-24T05:28:22.732Z,21.11
2018-08-24T05:29:22.733Z,21.12
2018-08-24T05:30:22.741Z,21.00
2018-08-24T05:31:22.751Z,21.02
2018-08-24T05:32:22.743Z,21.11
2018-08-24T05:33:22.748Z,21.00
2018-08-24T05:34:22.747Z,20.99
2018-08-24T05:35:22.752Z,21.06
2018-08-24T05:36:22.749Z,21.05
2018-08-24T05:37:22.748Z,21.20
2018-08-24T05:38:22.752Z,21.05
2018-08-24T05:39:22.755Z,21.21
2018-08-24T05:40:22.757Z,21.17
2018-08-24T05:41:22.787Z,21.18
2018-08-24T05:42:22.768Z,21.17
2018-08-24T05:43:22.762Z,21.11
2018-08-24T05:44:22.815Z,21.22
2018-08-24T05:45:22.767Z,21.48
2018-08-24T05:46:22.764Z,21.69
2018-08-24T05:47:22.769Z,21.70
2018-08-24T05:48:22.777Z,21.77
2018-08-24T05:49:22.779Z,21.99
2018-08-24T05:50:22.776Z,22.13
2018-08-24T05:51:22.779Z,22.32
2018-08-24T05:52:22.791Z,22.54
2018-08-24T05:53:22.784Z,22.66
2018-08-24T05:54:22.785Z,22.35
2018-08-24T05:55:22.798Z,22.29
2018-08-24T05:56:22.827Z,22.33
2018-08-24T05:57:22.829Z,22.50
2018-08-24T05:58:22.792Z,22.57
2018-08-24T05:59:22.797Z,22.87
2018-08-24T06:00:22.790Z,22.65
2018-08-24T06:01:22.807Z,22.69
2018-08-24T06:02:22.798Z,22.70
2018-08-24T06:03:22.798Z,22.85
2018-08-24T06:04:22.800Z,23.03
2018-08-24T06:05:22.810Z,23.27
2018-08-24T06:06:22.805Z,23.00
2018-08-24T06:07:22.810Z,22.93
2018-08-24T06:08:22.812Z,22.78
2018-08-24T06:09:22.818Z,22.81
2018-08-24T06:10:22.817Z,22.98
2018-08-24T06:11:22.821Z,23.03
2018-08-24T06:12:22.822Z,22.94
2018-08-24T06:13:22.830Z,22.73
2018-08-24T06:14:22.830Z,22.90
2018-08-24T06:15:22.828Z,23.34
2018-08-24T06:16:22.833Z,23.84
2018-08-24T06:17:22.835Z,24.42
2018-08-24T06:18:22.844Z,24.89
2018-08-24T06:19:22.838Z,25.16
2018-08-24T06:20:22.844Z,25.21
2018-08-24T06:21:22.844Z,25.16
2018-08-24T06:22:22.875Z,25.26
2018-08-24T06:23:22.853Z,24.99
2018-08-24T06:24:22.907Z,25.31
2018-08-24T06:25:22.856Z,25.55
2018-08-24T06:26:22.859Z,25.93
2018-08-24T06:27:22.874Z,25.59
2018-08-24T06:28:22.865Z,25.26
2018-08-24T06:29:22.867Z,24.84
2018-08-24T06:30:22.873Z,24.73
2018-08-24T06:31:22.878Z,24.53
2018-08-24T06:32:22.884Z,24.48
2018-08-24T06:33:22.884Z,24.40
2018-08-24T06:34:22.887Z,24.60
2018-08-24T06:35:22.893Z,24.98
2018-08-24T06:36:22.901Z,25.41
2018-08-24T06:37:22.898Z,25.66
2018-08-24T06:38:22.918Z,25.99
2018-08-24T06:39:22.904Z,25.91
2018-08-24T06:40:22.909Z,26.02
2018-08-24T06:41:22.915Z,26.34
2018-08-24T06:42:22.914Z,26.51
2018-08-24T06:43:22.923Z,26.59
2018-08-24T06:44:22.925Z,26.29
2018-08-24T06:45:22.928Z,26.15
2018-08-24T06:46:22.932Z,26.21
2018-08-24T06:47:23.109Z,25.38
2018-08-24T06:48:22.940Z,25.17
2018-08-24T06:49:22.945Z,25.03
2018-08-24T06:50:22.949Z,25.01
2018-08-24T06:51:22.951Z,24.58
2018-08-24T06:52:22.958Z,24.53
2018-08-24T06:53:23.130Z,24.13
2018-08-24T06:54:22.968Z,24.24
2018-08-24T06:55:22.968Z,24.42
2018-08-24T06:56:22.972Z,24.33
2018-08-24T06:57:22.980Z,24.68
2018-08-24T06:58:22.995Z,25.17
2018-08-24T06:59:22.984Z,25.29
2018-08-24T07:00:22.987Z,25.25
2018-08-24T07:01:22.991Z,25.18
2018-08-24T07:02:22.996Z,25.58
2018-08-24T07:03:23.000Z,25.80
2018-08-24T07:04:23.005Z,25.85
2018-08-24T07:05:23.008Z,26.16
2018-08-24T07:06:23.013Z,25.77
2018-08-24T07:07:23.015Z,25.31
2018-08-24T07:08:23.021Z,24.93
2018-08-24T07:09:23.024Z,24.66
2018-08-24T07:10:23.029Z,24.43
2018-08-24T07:11:23.032Z,24.16
2018-08-24T07:12:23.042Z,23.91
2018-08-24T07:13:23.042Z,23.66
2018-08-24T07:14:23.050Z,23.61
2018-08-24T07:15:23.055Z,23.83
2018-08-24T07:16:23.055Z,24.43
2018-08-24T07:17:23.055Z,24.47
2018-08-24T07:18:23.060Z,24.45
2018-08-24T07:19:23.063Z,24.43
2018-08-24T07:20:23.069Z,24.77
2018-08-24T07:21:23.072Z,25.13
2018-08-24T07:22:23.076Z,25.55
2018-08-24T07:23:23.079Z,25.59
2018-08-24T07:24:23.085Z,25.99
2018-08-24T07:25:23.086Z,25.70
2018-08-24T07:26:23.091Z,25.59
2018-08-24T07:27:23.097Z,25.62
2018-08-24T07:28:23.100Z,25.28
2018-08-24T07:29:23.099Z,25.41
2018-08-24T07:30:23.110Z,26.00
2018-08-24T07:31:23.118Z,25.95
2018-08-24T07:32:23.118Z,26.16
2018-08-24T07:33:23.121Z,26.16
2018-08-24T07:34:23.131Z,26.19
2018-08-24T07:35:23.131Z,25.65
2018-08-24T07:36:23.134Z,25.11
2018-08-24T07:37:23.139Z,24.86
2018-08-24T07:38:23.142Z,24.57
2018-08-24T07:39:23.148Z,24.69
2018-08-24T07:40:23.154Z,24.43
2018-08-24T07:41:23.175Z,24.74
2018-08-24T07:42:23.160Z,24.99
2018-08-24T07:43:23.165Z,25.72
2018-08-24T07:44:23.171Z,26.31
2018-08-24T07:45:23.176Z,26.48
2018-08-24T07:46:23.178Z,26.26
2018-08-24T07:47:23.184Z,26.75
2018-08-24T07:48:23.188Z,27.39
2018-08-24T07:49:23.189Z,27.85
2018-08-24T07:50:23.191Z,27.85
2018-08-24T07:51:23.198Z,27.18
2018-08-24T07:52:23.203Z,26.80
2018-08-24T07:53:23.208Z,26.75
2018-08-24T07:54:23.265Z,26.68
2018-08-24T07:55:23.218Z,26.51
2018-08-24T07:56:23.221Z,26.19
2018-08-24T07:57:23.227Z,26.09
2018-08-24T07:58:23.231Z,26.09
2018-08-24T07:59:23.236Z,26.13
2018-08-24T08:00:23.241Z,25.62
2018-08-24T08:01:23.287Z,25.43
2018-08-24T08:02:23.247Z,25.43
2018-08-24T08:03:23.255Z,25.32
2018-08-24T08:04:23.259Z,25.54
2018-08-24T08:05:23.304Z,25.25
2018-08-24T08:06:23.268Z,25.10
2018-08-24T08:07:23.271Z,25.14
2018-08-24T08:08:23.275Z,24.80
2018-08-24T08:09:23.282Z,24.63
2018-08-24T08:10:23.286Z,24.47
2018-08-24T08:11:23.291Z,24.43
2018-08-24T08:12:23.303Z,24.14
2018-08-24T08:13:23.299Z,23.96
2018-08-24T08:14:23.368Z,23.84
2018-08-24T08:15:23.322Z,23.83
2018-08-24T08:16:23.310Z,23.66
2018-08-24T08:17:23.316Z,23.61
2018-08-24T08:18:23.392Z,23.66
2018-08-24T08:19:23.319Z,23.62
2018-08-24T08:20:23.330Z,23.50
2018-08-24T08:21:23.330Z,23.48
2018-08-24T08:22:23.343Z,23.36
2018-08-24T08:23:23.346Z,23.37
2018-08-24T08:24:23.343Z,23.58
2018-08-24T08:25:23.348Z,23.54
2018-08-24T08:26:23.349Z,23.56
2018-08-24T08:27:23.354Z,23.63
2018-08-24T08:28:23.354Z,23.63
2018-08-24T08:29:23.359Z,23.76
2018-08-24T08:30:23.361Z,23.58
2018-08-24T08:31:23.368Z,23.76
2018-08-24T08:32:23.650Z,23.87
2018-08-24T08:33:23.375Z,23.92
2018-08-24T08:34:23.375Z,23.92
2018-08-24T08:35:23.483Z,23.87
2018-08-24T08:36:23.385Z,23.91
2018-08-24T08:37:23.523Z,23.87
2018-08-24T08:38:23.391Z,23.76
2018-08-24T08:39:23.393Z,23.92
2018-08-24T08:40:23.397Z,24.21
2018-08-24T08:41:23.403Z,24.40
2018-08-24T08:42:23.405Z,24.54
2018-08-24T08:43:23.407Z,24.65
2018-08-24T08:44:23.412Z,24.73
2018-08-24T08:45:23.430Z,25.01
2018-08-24T08:46:23.447Z,24.98
2018-08-24T08:47:23.419Z,24.84
2018-08-24T08:48:23.427Z,25.03
2018-08-24T08:49:23.428Z,24.85
2018-08-24T08:50:23.487Z,24.65
2018-08-24T08:51:23.439Z,24.61
2018-08-24T08:52:23.443Z,24.48
2018-08-24T08:53:23.464Z,24.53
2018-08-24T08:54:23.554Z,24.53
2018-08-24T08:55:23.453Z,24.60
2018-08-24T08:56:23.456Z,24.61
2018-08-24T08:57:23.459Z,24.70
2018-08-24T08:58:23.469Z,24.93
2018-08-24T08:59:23.467Z,24.91
2018-08-24T09:00:23.470Z,24.68
2018-08-24T09:01:23.475Z,24.63
2018-08-24T09:02:23.481Z,24.60
2018-08-24T09:03:23.482Z,24.63
2018-08-24T09:04:23.485Z,24.84
2018-08-24T09:05:23.491Z,24.80
2018-08-24T09:06:23.536Z,24.86
2018-08-24T09:07:23.496Z,24.93
2018-08-24T09:08:23.502Z,25.08
2018-08-24T09:09:23.501Z,25.11
2018-08-24T09:10:23.507Z,25.28
2018-08-24T09:11:23.512Z,25.18
2018-08-24T09:12:23.518Z,25.26
2018-08-24T09:13:23.519Z,25.36
2018-08-24T09:14:23.557Z,25.47
2018-08-24T09:15:23.526Z,25.43
2018-08-24T09:16:23.532Z,25.28
2018-08-24T09:17:23.537Z,25.28
2018-08-24T09:18:23.579Z,25.17
2018-08-24T09:19:23.542Z,25.07
2018-08-24T09:20:23.547Z,25.13
2018-08-24T09:21:23.548Z,25.21
2018-08-24T09:22:23.553Z,25.06
2018-08-24T09:23:23.559Z,24.95
2018-08-24T09:24:23.566Z,24.95
2018-08-24T09:25:23.704Z,24.96
2018-08-24T09:26:23.569Z,25.11
2018-08-24T09:27:23.618Z,25.11
2018-08-24T09:28:23.577Z,25.31
2018-08-24T09:29:23.582Z,25.50
2018-08-24T09:30:23.588Z,25.62
2018-08-24T09:31:23.592Z,25.65
2018-08-24T09:32:23.756Z,25.72
2018-08-24T09:33:23.597Z,25.66
2018-08-24T09:34:23.601Z,25.69
2018-08-24T09:35:23.622Z,25.72
2018-08-24T09:36:23.708Z,25.69
2018-08-24T09:37:23.618Z,25.66
2018-08-24T09:38:23.618Z,25.55
2018-08-24T09:39:23.621Z,25.53
2018-08-24T09:40:23.624Z,25.25
2018-08-24T09:41:23.632Z,25.01
2018-08-24T09:42:23.633Z,24.98
2018-08-24T09:43:23.645Z,25.04
2018-08-24T09:44:23.642Z,25.17
2018-08-24T09:45:23.645Z,25.06
2018-08-24T09:46:23.651Z,24.99
2018-08-24T09:47:23.656Z,24.98
2018-08-24T09:48:23.669Z,24.93
2018-08-24T09:49:23.716Z,24.91
2018-08-24T09:50:23.668Z,24.81
2018-08-24T09:51:23.676Z,24.68
2018-08-24T09:52:23.675Z,24.57
2018-08-24T09:53:23.679Z,24.45
2018-08-24T09:54:23.684Z,24.50
2018-08-24T09:55:23.691Z,24.48
2018-08-24T09:56:23.695Z,24.53
2018-08-24T09:57:23.695Z,24.47
2018-08-24T09:58:23.699Z,24.57
2018-08-24T09:59:23.708Z,24.73
2018-08-24T10:00:23.708Z,24.65
2018-08-24T10:01:23.710Z,24.78
2018-08-24T10:02:23.716Z,24.78
2018-08-24T10:03:23.720Z,24.70
2018-08-24T10:04:23.724Z,24.84
2018-08-24T10:05:23.727Z,24.81
2018-08-24T10:06:23.828Z,24.68
2018-08-24T10:07:23.735Z,24.81
2018-08-24T10:08:23.737Z,24.93
2018-08-24T10:09:23.744Z,25.01
2018-08-24T10:10:23.747Z,24.99
2018-08-24T10:11:23.753Z,24.99
2018-08-24T10:12:23.756Z,25.11
2018-08-24T10:13:23.836Z,24.99
2018-08-24T10:14:23.763Z,24.91
2018-08-24T10:15:23.767Z,24.63
2018-08-24T10:16:23.872Z,24.55
2018-08-24T10:17:23.774Z,24.57
2018-08-24T10:18:23.782Z,24.40
2018-08-24T10:19:23.780Z,24.39
2018-08-24T10:20:23.785Z,24.39
2018-08-24T10:21:23.789Z,24.47
2018-08-24T10:22:23.794Z,24.35
2018-08-24T10:23:23.798Z,24.45
2018-08-24T10:24:23.804Z,24.45
2018-08-24T10:25:23.805Z,24.43
2018-08-24T10:26:23.811Z,24.40
2018-08-24T10:27:23.816Z,24.54
2018-08-24T10:28:23.817Z,24.57
2018-08-24T10:29:23.968Z,24.57
2018-08-24T10:30:23.828Z,24.60
2018-08-24T10:31:23.828Z,24.60
2018-08-24T10:32:23.826Z,24.78
2018-08-24T10:33:23.838Z,24.69
2018-08-24T10:34:23.852Z,24.55
2018-08-24T10:35:23.844Z,24.48
2018-08-24T10:36:23.981Z,24.43
2018-08-24T10:37:23.851Z,24.13
2018-08-24T10:38:23.856Z,24.30
2018-08-24T10:39:23.881Z,24.26
2018-08-24T10:40:23.863Z,24.33
2018-08-24T10:41:23.912Z,24.28
2018-08-24T10:42:23.873Z,24.29
2018-08-24T10:43:23.869Z,24.32
2018-08-24T10:44:23.881Z,24.29
2018-08-24T10:45:23.879Z,24.42
2018-08-24T10:46:23.885Z,24.33
2018-08-24T10:47:23.895Z,24.42
2018-08-24T10:48:23.894Z,24.48
2018-08-24T10:49:23.956Z,24.65
2018-08-24T10:50:23.912Z,24.70
2018-08-24T10:51:23.904Z,24.81
2018-08-24T10:52:23.906Z,24.84
2018-08-24T10:53:23.911Z,24.77
2018-08-24T10:54:23.922Z,24.69
2018-08-24T10:55:23.937Z,24.50
2018-08-24T10:56:23.923Z,24.20
2018-08-24T10:57:23.948Z,24.02
2018-08-24T10:58:23.931Z,23.93
2018-08-24T10:59:23.933Z,23.88
2018-08-24T11:00:23.939Z,24.02
2018-08-24T11:01:23.949Z,24.10
2018-08-24T11:02:23.943Z,24.17
2018-08-24T11:03:23.968Z,24.30
2018-08-24T11:04:23.957Z,24.29
2018-08-24T11:05:24.013Z,24.30
2018-08-24T11:06:23.960Z,24.24
2018-08-24T11:07:24.062Z,24.03
2018-08-24T11:08:23.968Z,23.71
2018-08-24T11:09:23.970Z,23.71
2018-08-24T11:10:23.982Z,23.56
2018-08-24T11:11:23.975Z,23.46
2018-08-24T11:12:23.981Z,23.34
2018-08-24T11:13:23.984Z,23.27
2018-08-24T11:14:23.990Z,23.24
2018-08-24T11:15:24.036Z,23.08
2018-08-24T11:16:38.860Z,23.05
2018-08-24T11:17:24.000Z,22.91
2018-08-24T11:18:24.003Z,22.84
2018-08-24T11:19:24.008Z,22.81
2018-08-24T11:20:24.011Z,22.96
2018-08-24T11:21:24.012Z,23.00
2018-08-24T11:22:24.020Z,22.98
2018-08-24T11:23:24.020Z,22.85
2018-08-24T11:24:24.028Z,22.78
2018-08-24T11:25:24.045Z,22.78
2018-08-24T11:26:24.029Z,22.78
2018-08-24T11:27:24.034Z,22.94
2018-08-24T11:28:24.039Z,22.75
2018-08-24T11:29:24.094Z,22.80
2018-08-24T11:30:24.040Z,22.80
2018-08-24T11:31:24.086Z,22.70
2018-08-24T11:32:24.049Z,22.68
2018-08-24T11:33:24.061Z,22.55
2018-08-24T11:34:24.060Z,22.51
2018-08-24T11:35:24.060Z,22.41
2018-08-24T11:36:24.115Z,22.35
2018-08-24T11:37:24.063Z,22.29
2018-08-24T11:38:24.065Z,22.32
2018-08-24T11:39:24.076Z,22.32
2018-08-24T11:40:24.074Z,22.28
2018-08-24T11:41:24.351Z,22.25
2018-08-24T11:42:24.080Z,22.04
2018-08-24T11:43:24.249Z,21.92
2018-08-24T11:44:24.087Z,22.04
2018-08-24T11:45:24.107Z,21.83
2018-08-24T11:46:24.091Z,21.91
2018-08-24T11:47:24.273Z,21.83
2018-08-24T11:48:24.098Z,21.88
2018-08-24T11:49:24.099Z,21.76
2018-08-24T11:50:24.103Z,21.89
2018-08-24T11:51:24.104Z,21.96
2018-08-24T11:52:24.108Z,22.02
2018-08-24T11:53:24.107Z,22.00
2018-08-24T11:54:24.124Z,22.10
2018-08-24T11:55:24.117Z,22.07
2018-08-24T11:56:24.224Z,22.08
2018-08-24T11:57:24.123Z,22.11
2018-08-24T11:58:24.124Z,22.29
2018-08-24T11:59:24.128Z,22.29
2018-08-24T12:00:24.133Z,22.39
2018-08-24T12:01:24.256Z,22.60
2018-08-24T12:02:24.166Z,22.62
2018-08-24T12:03:24.151Z,22.60
2018-08-24T12:04:24.140Z,22.65
2018-08-24T12:05:24.251Z,22.73
2018-08-24T12:06:24.146Z,22.96
2018-08-24T12:07:24.148Z,23.00
2018-08-24T12:08:24.312Z,23.00
2018-08-24T12:09:24.153Z,23.25
2018-08-24T12:10:24.158Z,23.31
2018-08-24T12:11:24.160Z,23.28
2018-08-24T12:12:24.178Z,23.27
2018-08-24T12:13:24.498Z,23.39
2018-08-24T12:14:24.392Z,23.44
2018-08-24T12:15:24.293Z,23.55
2018-08-24T12:16:24.845Z,23.58
2018-08-24T12:17:24.473Z,23.63
2018-08-24T12:18:24.677Z,23.71
2018-08-24T12:19:24.267Z,23.63
2018-08-24T12:20:24.193Z,23.66
2018-08-24T12:21:24.529Z,23.48
2018-08-24T12:22:24.281Z,23.25
2018-08-24T12:23:25.165Z,23.36
2018-08-24T12:24:24.926Z,23.34
2018-08-24T12:25:24.344Z,23.32
2018-08-24T12:26:24.514Z,23.23
2018-08-24T12:28:24.548Z,23.17
2018-08-24T12:29:24.415Z,23.09
2018-08-24T12:30:25.644Z,23.09
2018-08-24T12:31:26.059Z,23.17
2018-08-24T12:32:24.958Z,23.06
2018-08-24T12:34:24.452Z,22.85
2018-08-24T12:35:24.375Z,22.91
2018-08-24T12:36:24.426Z,22.96
2018-08-24T12:37:24.264Z,22.99
2018-08-24T12:38:24.262Z,23.02
2018-08-24T12:39:24.467Z,23.00
2018-08-24T12:40:24.281Z,22.80
2018-08-24T12:41:24.331Z,22.94
2018-08-24T12:42:24.311Z,22.69
2018-08-24T12:43:24.311Z,22.69
2018-08-24T12:44:24.314Z,22.63
2018-08-24T12:45:24.312Z,22.72
2018-08-24T12:46:24.289Z,22.83
2018-08-24T12:47:24.315Z,22.87
2018-08-24T12:48:24.324Z,22.85
2018-08-24T12:49:24.435Z,22.91
2018-08-24T12:50:24.361Z,22.90
2018-08-24T12:51:24.744Z,22.91
2018-08-24T12:52:24.343Z,22.88
2018-08-24T12:53:24.511Z,22.78
2018-08-24T12:54:24.321Z,22.70